createdAt,value
2018-04-15T00:00:00.935Z,0
2018-04-15T00:01:00.883Z,0
2018-04-15T00:02:01.127Z,0
2018-04-15T00:03:00.844Z,0
2018-04-15T00:04:00.564Z,0
2018-04-15T00:05:00.550Z,0
2018-04-15T00:06:00.537Z,0
2018-04-15T00:07:00.524Z,0
2018-04-15T00:08:00.499Z,0
2018-04-15T00:09:00.488Z,0
2018-04-15T00:10:01.017Z,0
2018-04-15T00:11:00.723Z,0
2018-04-15T00:12:00.973Z,0
2018-04-15T00:13:00.444Z,0
2018-04-15T00:14:00.962Z,0
2018-04-15T00:15:00.134Z,0
2018-04-15T00:16:00.652Z,0
2018-04-15T00:17:00.372Z,0
2018-04-15T00:18:00.623Z,0
2018-04-15T00:19:00.609Z,0
2018-04-15T00:20:00.331Z,0
2018-04-15T00:21:00.838Z,0
2018-04-15T00:22:01.024Z,0
2018-04-15T00:23:00.811Z,0
2018-04-15T00:24:00.523Z,0
2018-04-15T00:25:00.786Z,0
2018-04-15T00:26:00.761Z,0
2018-04-15T00:27:00.748Z,0
2018-04-15T00:28:00.735Z,0
2018-04-15T00:29:00.204Z,0
2018-04-15T00:30:00.643Z,0
2018-04-15T00:31:00.696Z,0
2018-04-15T00:32:00.413Z,0
2018-04-15T00:33:00.411Z,0
2018-04-15T00:34:00.383Z,0
2018-04-15T00:35:00.364Z,0
2018-04-15T00:36:00.354Z,0
2018-04-15T00:37:00.071Z,0
2018-04-15T00:38:00.057Z,0
2018-04-15T00:39:00.046Z,0
2018-04-15T00:40:00.548Z,0
2018-04-15T00:41:00.021Z,0
2018-04-15T00:42:00.262Z,0
2018-04-15T00:42:59.723Z,0
2018-04-15T00:43:59.956Z,0
2018-04-15T00:44:59.682Z,0
2018-04-15T00:46:00.194Z,0
2018-04-15T00:47:00.182Z,0
2018-04-15T00:47:59.909Z,0
2018-04-15T00:48:59.885Z,0
2018-04-15T00:49:59.871Z,0
2018-04-15T00:50:59.591Z,0
2018-04-15T00:52:00.103Z,0
2018-04-15T00:52:59.568Z,0
2018-04-15T00:54:00.076Z,0
2018-04-15T00:54:59.796Z,0
2018-04-15T00:56:00.312Z,0
2018-04-15T00:57:00.290Z,0
2018-04-15T00:57:59.766Z,0
2018-04-15T00:58:59.735Z,0
2018-04-15T00:59:59.721Z,0
2018-04-15T01:00:59.714Z,0
2018-04-15T01:01:59.425Z,0
2018-04-15T01:02:59.941Z,0
2018-04-15T01:03:59.922Z,0
2018-04-15T01:04:59.655Z,0
2018-04-15T01:06:00.169Z,0
2018-04-15T01:06:59.882Z,0
2018-04-15T01:07:59.858Z,0
2018-04-15T01:08:59.852Z,0
2018-04-15T01:09:59.574Z,0
2018-04-15T01:10:59.555Z,0
2018-04-15T01:11:59.281Z,0
2018-04-15T01:12:59.522Z,0
2018-04-15T01:13:59.777Z,0
2018-04-15T01:14:59.753Z,0
2018-04-15T01:16:00.014Z,0
2018-04-15T01:16:59.468Z,0
2018-04-15T01:17:59.451Z,0
2018-04-15T01:19:00.021Z,0
2018-04-15T01:19:59.152Z,0
2018-04-15T01:20:59.140Z,0
2018-04-15T01:21:59.658Z,0
2018-04-15T01:22:59.383Z,0
2018-04-15T01:23:59.355Z,0
2018-04-15T01:24:59.078Z,0
2018-04-15T01:25:59.327Z,0
2018-04-15T01:26:59.051Z,0
2018-04-15T01:27:59.562Z,0
2018-04-15T01:28:59.551Z,0
2018-04-15T01:29:59.284Z,0
2018-04-15T01:30:59.795Z,0
2018-04-15T01:31:59.501Z,0
2018-04-15T01:32:59.236Z,0
2018-04-15T01:33:58.946Z,0
2018-04-15T01:34:59.197Z,0
2018-04-15T01:35:59.184Z,0
2018-04-15T01:36:59.433Z,0
2018-04-15T01:37:59.428Z,0
2018-04-15T01:38:59.401Z,0
2018-04-15T01:39:59.396Z,0
2018-04-15T01:40:59.369Z,0
2018-04-15T01:41:59.100Z,0
2018-04-15T01:42:59.085Z,0
2018-04-15T01:43:59.326Z,0
2018-04-15T01:44:59.312Z,0
2018-04-15T01:45:59.293Z,0
2018-04-15T01:46:59.303Z,0
2018-04-15T01:47:59.008Z,0
2018-04-15T01:48:59.516Z,0
2018-04-15T01:49:58.977Z,0
2018-04-15T01:50:59.233Z,0
2018-04-15T01:51:58.951Z,0
2018-04-15T01:52:58.927Z,0
2018-04-15T01:53:59.450Z,0
2018-04-15T01:54:59.176Z,0
2018-04-15T01:55:59.151Z,0
2018-04-15T01:56:58.867Z,0
2018-04-15T01:57:59.125Z,0
2018-04-15T01:58:58.854Z,0
2018-04-15T01:59:58.835Z,0
2018-04-15T02:00:59.343Z,0
2018-04-15T02:01:59.078Z,0
2018-04-15T02:02:59.314Z,0
2018-04-15T02:03:59.041Z,0
2018-04-15T02:04:59.292Z,0
2018-04-15T02:05:59.002Z,0
2018-04-15T02:06:59.256Z,0
2018-04-15T02:07:59.234Z,0
2018-04-15T02:08:58.686Z,0
2018-04-15T02:09:58.411Z,0
2018-04-15T02:10:58.927Z,0
2018-04-15T02:11:58.915Z,0
2018-04-15T02:12:58.629Z,0
2018-04-15T02:13:58.888Z,0
2018-04-15T02:14:58.869Z,0
2018-04-15T02:15:59.123Z,0
2018-04-15T02:16:58.571Z,0
2018-04-15T02:17:59.082Z,0
2018-04-15T02:18:58.847Z,0
2018-04-15T02:19:58.805Z,0
2018-04-15T02:20:58.772Z,0
2018-04-15T02:21:58.231Z,0
2018-04-15T02:22:58.221Z,0
2018-04-15T02:23:58.469Z,0
2018-04-15T02:24:58.714Z,0
2018-04-15T02:25:58.700Z,0
2018-04-15T02:26:58.422Z,0
2018-04-15T02:27:58.668Z,0
2018-04-15T02:28:58.651Z,0
2018-04-15T02:29:58.781Z,0
2018-04-15T02:30:58.901Z,0
2018-04-15T02:31:58.893Z,0
2018-04-15T02:32:58.597Z,0
2018-04-15T02:33:58.861Z,0
2018-04-15T02:34:58.849Z,0
2018-04-15T02:35:58.293Z,0
2018-04-15T02:36:58.540Z,0
2018-04-15T02:37:58.256Z,0
2018-04-15T02:38:58.240Z,0
2018-04-15T02:39:58.224Z,0
2018-04-15T02:40:58.494Z,0
2018-04-15T02:41:58.482Z,0
2018-04-15T02:42:58.180Z,0
2018-04-15T02:43:58.431Z,0
2018-04-15T02:44:58.679Z,0
2018-04-15T02:45:58.136Z,0
2018-04-15T02:46:58.123Z,0
2018-04-15T02:47:58.644Z,0
2018-04-15T02:48:58.085Z,0
2018-04-15T02:49:58.345Z,0
2018-04-15T02:50:58.591Z,0
2018-04-15T02:51:58.314Z,0
2018-04-15T02:52:57.764Z,0
2018-04-15T02:53:58.328Z,0
2018-04-15T02:54:58.277Z,0
2018-04-15T02:55:58.527Z,0
2018-04-15T02:56:57.971Z,0
2018-04-15T02:57:57.965Z,0
2018-04-15T02:58:58.203Z,0
2018-04-15T02:59:57.923Z,0
2018-04-15T03:00:58.442Z,0
2018-04-15T03:01:58.163Z,0
2018-04-15T03:02:58.146Z,0
2018-04-15T03:03:57.862Z,0
2018-04-15T03:04:57.582Z,0
2018-04-15T03:05:58.108Z,0
2018-04-15T03:06:57.553Z,0
2018-04-15T03:07:58.339Z,0
2018-04-15T03:08:58.324Z,0
2018-04-15T03:09:58.050Z,0
2018-04-15T03:10:58.027Z,0
2018-04-15T03:11:57.745Z,0
2018-04-15T03:12:57.726Z,0
2018-04-15T03:13:58.238Z,0
2018-04-15T03:14:57.695Z,0
2018-04-15T03:15:57.952Z,0
2018-04-15T03:16:57.745Z,0
2018-04-15T03:17:57.982Z,0
2018-04-15T03:18:57.639Z,0
2018-04-15T03:19:57.887Z,0
2018-04-15T03:20:57.868Z,0
2018-04-15T03:21:57.592Z,0
2018-04-15T03:22:57.307Z,0
2018-04-15T03:23:57.289Z,0
2018-04-15T03:24:57.864Z,0
2018-04-15T03:25:58.067Z,0
2018-04-15T03:26:57.521Z,0
2018-04-15T03:27:57.763Z,0
2018-04-15T03:28:57.753Z,0
2018-04-15T03:29:57.471Z,0
2018-04-15T03:30:57.735Z,0
2018-04-15T03:31:57.186Z,0
2018-04-15T03:32:57.695Z,0
2018-04-15T03:33:57.669Z,0
2018-04-15T03:34:57.923Z,0
2018-04-15T03:35:57.645Z,0
2018-04-15T03:36:57.628Z,0
2018-04-15T03:37:57.883Z,0
2018-04-15T03:38:57.064Z,0
2018-04-15T03:39:57.588Z,0
2018-04-15T03:40:57.566Z,0
2018-04-15T03:41:57.289Z,0
2018-04-15T03:42:57.543Z,0
2018-04-15T03:43:57.348Z,0
2018-04-15T03:44:57.504Z,0
2018-04-15T03:45:57.490Z,0
2018-04-15T03:46:57.479Z,0
2018-04-15T03:47:57.492Z,0
2018-04-15T03:48:57.440Z,0
2018-04-15T03:49:57.166Z,0
2018-04-15T03:50:57.414Z,0
2018-04-15T03:51:57.138Z,0
2018-04-15T03:52:57.656Z,0
2018-04-15T03:53:57.369Z,0
2018-04-15T03:54:57.355Z,0
2018-04-15T03:55:57.612Z,0
2018-04-15T03:56:57.594Z,0
2018-04-15T03:57:57.571Z,0
2018-04-15T03:58:57.296Z,0
2018-04-15T03:59:57.015Z,0
2018-04-15T04:00:57.263Z,0
2018-04-15T04:01:57.244Z,0
2018-04-15T04:02:56.699Z,0
2018-04-15T04:03:56.955Z,0
2018-04-15T04:04:57.200Z,0
2018-04-15T04:05:57.456Z,0
2018-04-15T04:06:57.173Z,0
2018-04-15T04:07:57.158Z,0
2018-04-15T04:08:57.148Z,0
2018-04-15T04:09:57.128Z,0
2018-04-15T04:10:56.582Z,0
2018-04-15T04:11:56.828Z,0
2018-04-15T04:12:57.133Z,0
2018-04-15T04:13:56.802Z,0
2018-04-15T04:14:57.055Z,0
2018-04-15T04:15:57.040Z,4
2018-04-15T04:16:56.755Z,4
2018-04-15T04:17:57.011Z,4
2018-04-15T04:18:56.460Z,4
2018-04-15T04:19:56.453Z,0
2018-04-15T04:20:56.694Z,4
2018-04-15T04:21:56.955Z,4
2018-04-15T04:22:56.667Z,8
2018-04-15T04:23:57.190Z,4
2018-04-15T04:24:56.909Z,8
2018-04-15T04:25:56.616Z,8
2018-04-15T04:26:57.131Z,8
2018-04-15T04:27:57.118Z,8
2018-04-15T04:28:57.117Z,12
2018-04-15T04:29:57.236Z,12
2018-04-15T04:30:56.880Z,12
2018-04-15T04:31:56.795Z,12
2018-04-15T04:32:56.811Z,16
2018-04-15T04:33:56.492Z,20
2018-04-15T04:34:56.484Z,20
2018-04-15T04:35:56.736Z,24
2018-04-15T04:36:56.727Z,24
2018-04-15T04:37:56.438Z,24
2018-04-15T04:38:56.687Z,32
2018-04-15T04:39:56.411Z,32
2018-04-15T04:40:56.395Z,36
2018-04-15T04:41:56.694Z,36
2018-04-15T04:42:56.634Z,36
2018-04-15T04:43:56.363Z,40
2018-04-15T04:44:56.654Z,44
2018-04-15T04:45:56.857Z,44
2018-04-15T04:46:56.582Z,48
2018-04-15T04:47:56.293Z,52
2018-04-15T04:48:56.267Z,56
2018-04-15T04:49:56.533Z,56
2018-04-15T04:50:56.823Z,64
2018-04-15T04:51:55.969Z,64
2018-04-15T04:52:56.479Z,68
2018-04-15T04:53:56.464Z,72
2018-04-15T04:54:56.462Z,76
2018-04-15T04:55:56.431Z,80
2018-04-15T04:56:56.418Z,80
2018-04-15T04:57:56.141Z,84
2018-04-15T04:58:56.390Z,88
2018-04-15T04:59:56.368Z,104
2018-04-15T05:00:56.351Z,104
2018-04-15T05:01:56.346Z,112
2018-04-15T05:02:56.064Z,120
2018-04-15T05:03:56.323Z,128
2018-04-15T05:04:56.306Z,132
2018-04-15T05:05:56.556Z,136
2018-04-15T05:06:56.536Z,136
2018-04-15T05:07:56.251Z,140
2018-04-15T05:08:55.967Z,148
2018-04-15T05:09:55.694Z,156
2018-04-15T05:10:55.949Z,160
2018-04-15T05:11:55.921Z,164
2018-04-15T05:12:56.444Z,172
2018-04-15T05:13:55.905Z,176
2018-04-15T05:14:56.408Z,184
2018-04-15T05:15:55.864Z,196
2018-04-15T05:16:56.384Z,204
2018-04-15T05:17:56.371Z,212
2018-04-15T05:18:55.822Z,220
2018-04-15T05:19:56.071Z,228
2018-04-15T05:20:55.524Z,220
2018-04-15T05:21:56.040Z,200
2018-04-15T05:22:56.021Z,204
2018-04-15T05:23:56.015Z,204
2018-04-15T05:24:56.253Z,200
2018-04-15T05:25:55.452Z,200
2018-04-15T05:26:56.224Z,212
2018-04-15T05:27:55.958Z,208
2018-04-15T05:28:55.932Z,192
2018-04-15T05:29:55.653Z,188
2018-04-15T05:30:55.631Z,196
2018-04-15T05:31:55.887Z,224
2018-04-15T05:32:56.142Z,244
2018-04-15T05:33:56.134Z,268
2018-04-15T05:34:55.848Z,288
2018-04-15T05:35:56.115Z,304
2018-04-15T05:36:55.543Z,316
2018-04-15T05:37:55.809Z,336
2018-04-15T05:38:55.520Z,356
2018-04-15T05:39:55.766Z,372
2018-04-15T05:40:55.754Z,388
2018-04-15T05:41:55.734Z,428
2018-04-15T05:42:55.987Z,464
2018-04-15T05:43:55.441Z,500
2018-04-15T05:44:55.695Z,520
2018-04-15T05:45:55.419Z,524
2018-04-15T05:46:55.658Z,528
2018-04-15T05:47:55.389Z,560
2018-04-15T05:48:55.367Z,592
2018-04-15T05:49:55.355Z,648
2018-04-15T05:50:55.339Z,652
2018-04-15T05:51:55.589Z,628
2018-04-15T05:52:55.309Z,596
2018-04-15T05:53:55.936Z,540
2018-04-15T05:54:55.545Z,564
2018-04-15T05:55:55.798Z,624
2018-04-15T05:56:55.251Z,640
2018-04-15T05:57:55.501Z,640
2018-04-15T05:58:54.954Z,576
2018-04-15T05:59:55.204Z,752
2018-04-15T06:00:54.921Z,848
2018-04-15T06:01:55.182Z,828
2018-04-15T06:02:55.691Z,800
2018-04-15T06:03:55.699Z,804
2018-04-15T06:04:55.127Z,824
2018-04-15T06:05:55.385Z,848
2018-04-15T06:06:55.361Z,788
2018-04-15T06:07:55.087Z,784
2018-04-15T06:08:55.339Z,804
2018-04-15T06:09:55.571Z,828
2018-04-15T06:10:55.304Z,872
2018-04-15T06:11:55.031Z,956
2018-04-15T06:12:55.278Z,1004
2018-04-15T06:13:54.987Z,1012
2018-04-15T06:14:55.605Z,1044
2018-04-15T06:15:55.233Z,1064
2018-04-15T06:16:54.949Z,1080
2018-04-15T06:17:55.210Z,1088
2018-04-15T06:18:54.919Z,1080
2018-04-15T06:19:55.183Z,1076
2018-04-15T06:20:55.427Z,1096
2018-04-15T06:21:54.875Z,1140
2018-04-15T06:22:55.396Z,1176
2018-04-15T06:23:55.112Z,1216
2018-04-15T06:24:55.101Z,1268
2018-04-15T06:25:55.348Z,1312
2018-04-15T06:26:54.533Z,1328
2018-04-15T06:27:54.528Z,1360
2018-04-15T06:28:54.776Z,1420
2018-04-15T06:29:55.032Z,1532
2018-04-15T06:30:55.354Z,1648
2018-04-15T06:31:55.000Z,1772
2018-04-15T06:32:54.983Z,1864
2018-04-15T06:33:54.978Z,1908
2018-04-15T06:34:55.213Z,1840
2018-04-15T06:35:54.669Z,1840
2018-04-15T06:36:55.515Z,2064
2018-04-15T06:37:54.374Z,2128
2018-04-15T06:38:54.900Z,2168
2018-04-15T06:39:54.610Z,2236
2018-04-15T06:40:54.609Z,2340
2018-04-15T06:41:54.845Z,2456
2018-04-15T06:42:54.830Z,2560
2018-04-15T06:43:54.551Z,2536
2018-04-15T06:44:55.069Z,2488
2018-04-15T06:45:54.527Z,2568
2018-04-15T06:46:55.050Z,2408
2018-04-15T06:47:54.227Z,2268
2018-04-15T06:48:54.478Z,2204
2018-04-15T06:49:55.000Z,2284
2018-04-15T06:50:54.734Z,2292
2018-04-15T06:51:54.438Z,2328
2018-04-15T06:52:54.696Z,2240
2018-04-15T06:53:54.737Z,2224
2018-04-15T06:54:54.393Z,2168
2018-04-15T06:55:54.693Z,2256
2018-04-15T06:56:54.637Z,2284
2018-04-15T06:57:54.885Z,2356
2018-04-15T06:58:54.610Z,2428
2018-04-15T06:59:54.591Z,2472
2018-04-15T07:00:54.310Z,2500
2018-04-15T07:01:54.559Z,2580
2018-04-15T07:02:54.546Z,2624
2018-04-15T07:03:54.259Z,2688
2018-04-15T07:04:54.518Z,2748
2018-04-15T07:05:54.238Z,2816
2018-04-15T07:06:54.240Z,2916
2018-04-15T07:07:54.742Z,3004
2018-04-15T07:08:54.187Z,3072
2018-04-15T07:09:53.921Z,3136
2018-04-15T07:10:54.756Z,3260
2018-04-15T07:11:54.208Z,3440
2018-04-15T07:12:54.139Z,3648
2018-04-15T07:13:54.392Z,3788
2018-04-15T07:14:53.840Z,3788
2018-04-15T07:15:54.626Z,3716
2018-04-15T07:16:54.619Z,3792
2018-04-15T07:17:54.062Z,4116
2018-04-15T07:18:53.788Z,4244
2018-04-15T07:19:54.030Z,4204
2018-04-15T07:20:54.287Z,4420
2018-04-15T07:21:54.303Z,4720
2018-04-15T07:22:54.264Z,5144
2018-04-15T07:23:53.715Z,5436
2018-04-15T07:24:53.960Z,5640
2018-04-15T07:25:54.483Z,5624
2018-04-15T07:26:53.940Z,5508
2018-04-15T07:27:54.179Z,5676
2018-04-15T07:28:54.187Z,5952
2018-04-15T07:29:54.163Z,6300
2018-04-15T07:30:53.886Z,6528
2018-04-15T07:31:54.403Z,6660
2018-04-15T07:32:54.400Z,6624
2018-04-15T07:33:53.848Z,6688
2018-04-15T07:34:53.569Z,6740
2018-04-15T07:35:53.813Z,6884
2018-04-15T07:36:54.329Z,7052
2018-04-15T07:37:54.316Z,7248
2018-04-15T07:38:54.048Z,7308
2018-04-15T07:39:54.023Z,7448
2018-04-15T07:40:53.480Z,7624
2018-04-15T07:41:53.733Z,7976
2018-04-15T07:42:53.786Z,8388
2018-04-15T07:43:54.254Z,8444
2018-04-15T07:44:53.987Z,8268
2018-04-15T07:45:53.691Z,7956
2018-04-15T07:46:53.681Z,7704
2018-04-15T07:47:53.926Z,7356
2018-04-15T07:48:54.171Z,6744
2018-04-15T07:49:53.898Z,6588
2018-04-15T07:50:53.880Z,6092
2018-04-15T07:51:53.341Z,5428
2018-04-15T07:52:53.868Z,5640
2018-04-15T07:53:53.574Z,5968
2018-04-15T07:54:53.567Z,6104
2018-04-15T07:55:53.287Z,6428
2018-04-15T07:56:53.809Z,7068
2018-04-15T07:57:53.526Z,7940
2018-04-15T07:58:54.047Z,8772
2018-04-15T07:59:53.233Z,9372
2018-04-15T08:00:53.487Z,9988
2018-04-15T08:01:53.742Z,10200
2018-04-15T08:02:53.738Z,10348
2018-04-15T08:03:53.769Z,10168
2018-04-15T08:04:53.445Z,10144
2018-04-15T08:05:53.703Z,9640
2018-04-15T08:06:53.416Z,9140
2018-04-15T08:07:53.992Z,8560
2018-04-15T08:08:53.387Z,8580
2018-04-15T08:09:53.377Z,8636
2018-04-15T08:10:53.365Z,8748
2018-04-15T08:11:53.885Z,9832
2018-04-15T08:12:53.338Z,8360
2018-04-15T08:13:53.603Z,8408
2018-04-15T08:14:53.326Z,9440
2018-04-15T08:15:53.834Z,12444
2018-04-15T08:16:53.568Z,36992
2018-04-15T08:17:53.013Z,35776
2018-04-15T08:18:53.539Z,42688
2018-04-15T08:19:52.995Z,40064
2018-04-15T08:20:52.981Z,38720
2018-04-15T08:21:53.770Z,45600
2018-04-15T08:22:53.225Z,55808
2018-04-15T08:23:53.221Z,56192
2018-04-15T08:24:53.480Z,46144
2018-04-15T08:25:53.736Z,38944
2018-04-15T08:26:53.458Z,36640
2018-04-15T08:27:52.918Z,37504
2018-04-15T08:28:53.441Z,37120
2018-04-15T08:29:53.433Z,39200
2018-04-15T08:30:53.631Z,32992
2018-04-15T08:31:53.707Z,38080
2018-04-15T08:32:53.411Z,29408
2018-04-15T08:33:53.145Z,23264
2018-04-15T08:34:53.412Z,17472
2018-04-15T08:35:53.396Z,36832
2018-04-15T08:36:53.402Z,35968
2018-04-15T08:37:53.657Z,33888
2018-04-15T08:38:53.377Z,38784
2018-04-15T08:39:53.370Z,26080
2018-04-15T08:40:52.836Z,42944
2018-04-15T08:41:53.095Z,39232
2018-04-15T08:42:53.091Z,42272
2018-04-15T08:43:53.355Z,54944
2018-04-15T08:44:53.087Z,53760
2018-04-15T08:45:53.626Z,57280
2018-04-15T08:46:53.611Z,44832
2018-04-15T08:47:53.604Z,31936
2018-04-15T08:48:52.804Z,36672
2018-04-15T08:49:53.064Z,30816
2018-04-15T08:50:53.065Z,29440
2018-04-15T08:51:53.326Z,43424
2018-04-15T08:52:53.323Z,22048
2018-04-15T08:53:52.789Z,42880
2018-04-15T08:54:53.320Z,12256
2018-04-15T08:55:52.779Z,28992
2018-04-15T08:56:53.048Z,29888
2018-04-15T08:57:52.774Z,19648
2018-04-15T08:58:53.038Z,23904
2018-04-15T08:59:53.044Z,32160
2018-04-15T09:00:53.028Z,29920
2018-04-15T09:01:53.290Z,23616
2018-04-15T09:02:53.288Z,8492
2018-04-15T09:03:53.021Z,7880
2018-04-15T09:04:53.014Z,43936
2018-04-15T09:05:53.285Z,53760
2018-04-15T09:06:53.275Z,49088
2018-04-15T09:07:53.005Z,38304
2018-04-15T09:08:52.993Z,7348
2018-04-15T09:09:53.003Z,46560
2018-04-15T09:10:53.262Z,47456
2018-04-15T09:11:52.718Z,17792
2018-04-15T09:12:53.251Z,42560
2018-04-15T09:13:53.505Z,41792
2018-04-15T09:14:53.236Z,34080
2018-04-15T09:15:53.227Z,22624
2018-04-15T09:16:52.959Z,25952
2018-04-15T09:17:53.222Z,28800
2018-04-15T09:18:52.941Z,27328
2018-04-15T09:19:53.213Z,21344
2018-04-15T09:20:53.203Z,19296
2018-04-15T09:21:52.669Z,30176
2018-04-15T09:22:53.196Z,54048
2018-04-15T09:23:53.449Z,54144
2018-04-15T09:24:52.920Z,42976
2018-04-15T09:25:52.914Z,11488
2018-04-15T09:26:52.650Z,13380
2018-04-15T09:27:52.906Z,25792
2018-04-15T09:28:52.897Z,46240
2018-04-15T09:29:52.893Z,40128
2018-04-15T09:30:52.890Z,21600
2018-04-15T09:31:52.890Z,17568
2018-04-15T09:32:53.147Z,27936
2018-04-15T09:33:53.145Z,47968
2018-04-15T09:34:53.136Z,28800
2018-04-15T09:35:52.873Z,16912
2018-04-15T09:36:53.130Z,26720
2018-04-15T09:37:52.859Z,28672
2018-04-15T09:38:52.855Z,37760
2018-04-15T09:39:52.844Z,21120
2018-04-15T09:40:52.579Z,21888
2018-04-15T09:41:53.109Z,42784
2018-04-15T09:42:53.362Z,48512
2018-04-15T09:43:53.134Z,20864
2018-04-15T09:44:52.831Z,17824
2018-04-15T09:45:53.088Z,21152
2018-04-15T09:46:53.080Z,28352
2018-04-15T09:47:53.076Z,41472
2018-04-15T09:48:53.072Z,38464
2018-04-15T09:49:52.854Z,38304
2018-04-15T09:50:52.803Z,33088
2018-04-15T09:51:53.333Z,23040
2018-04-15T09:52:53.056Z,12536
2018-04-15T09:53:52.780Z,27744
2018-04-15T09:54:52.782Z,24544
2018-04-15T09:55:53.055Z,25984
2018-04-15T09:56:53.041Z,27072
2018-04-15T09:57:52.497Z,28256
2018-04-15T09:58:52.758Z,37632
2018-04-15T09:59:53.014Z,45312
2018-04-15T10:00:52.745Z,48704
2018-04-15T10:01:53.065Z,11976
2018-04-15T10:02:53.276Z,15256
2018-04-15T10:03:52.994Z,31104
2018-04-15T10:04:52.991Z,34272
2018-04-15T10:05:52.989Z,31936
2018-04-15T10:06:53.250Z,23072
2018-04-15T10:07:52.984Z,30176
2018-04-15T10:08:52.984Z,17984
2018-04-15T10:09:52.441Z,14676
2018-04-15T10:10:53.051Z,17232
2018-04-15T10:11:52.692Z,26144
2018-04-15T10:12:52.688Z,32032
2018-04-15T10:13:52.953Z,45120
2018-04-15T10:14:52.948Z,35680
2018-04-15T10:15:52.418Z,15600
2018-04-15T10:16:53.018Z,48448
2018-04-15T10:17:52.927Z,63296
2018-04-15T10:18:52.932Z,44000
2018-04-15T10:19:52.918Z,36480
2018-04-15T10:20:52.928Z,39360
2018-04-15T10:21:52.917Z,57344
2018-04-15T10:22:52.906Z,66944
2018-04-15T10:23:52.906Z,73632
2018-04-15T10:24:52.368Z,76416
2018-04-15T10:25:52.895Z,69344
2018-04-15T10:26:52.626Z,57952
2018-04-15T10:27:52.642Z,38240
2018-04-15T10:28:52.620Z,44480
2018-04-15T10:29:53.150Z,11740
2018-04-15T10:30:52.891Z,19392
2018-04-15T10:31:52.609Z,36608
2018-04-15T10:32:52.616Z,35648
2018-04-15T10:33:52.881Z,44192
2018-04-15T10:34:52.869Z,45696
2018-04-15T10:35:52.602Z,45120
2018-04-15T10:36:52.597Z,61632
2018-04-15T10:37:53.121Z,68064
2018-04-15T10:38:52.879Z,20128
2018-04-15T10:39:52.592Z,54464
2018-04-15T10:40:52.843Z,19392
2018-04-15T10:41:52.582Z,46304
2018-04-15T10:42:52.579Z,53856
2018-04-15T10:43:52.575Z,35936
2018-04-15T10:44:53.103Z,43744
2018-04-15T10:45:52.570Z,78976
2018-04-15T10:46:52.567Z,67360
2018-04-15T10:47:52.831Z,20288
2018-04-15T10:48:52.818Z,47744
2018-04-15T10:49:53.084Z,11352
2018-04-15T10:50:52.554Z,13364
2018-04-15T10:51:52.547Z,58432
2018-04-15T10:52:52.551Z,43488
2018-04-15T10:53:52.815Z,54240
2018-04-15T10:54:53.070Z,63552
2018-04-15T10:55:52.798Z,77024
2018-04-15T10:56:52.536Z,83168
2018-04-15T10:57:52.797Z,87424
2018-04-15T10:58:52.526Z,85984
2018-04-15T10:59:53.179Z,66912
2018-04-15T11:00:52.567Z,79328
2018-04-15T11:01:52.530Z,88256
2018-04-15T11:02:52.797Z,83552
2018-04-15T11:03:52.523Z,81536
2018-04-15T11:04:52.793Z,76640
2018-04-15T11:05:52.262Z,74912
2018-04-15T11:06:52.780Z,72608
2018-04-15T11:07:52.526Z,80480
2018-04-15T11:08:52.599Z,81088
2018-04-15T11:09:52.797Z,80448
2018-04-15T11:10:52.524Z,89888
2018-04-15T11:11:52.795Z,93888
2018-04-15T11:12:53.058Z,81664
2018-04-15T11:13:52.818Z,62720
2018-04-15T11:14:52.274Z,30144
2018-04-15T11:15:53.074Z,45088
2018-04-15T11:16:53.070Z,74848
2018-04-15T11:17:52.548Z,82880
2018-04-15T11:18:52.544Z,80960
2018-04-15T11:19:52.548Z,74880
2018-04-15T11:20:52.824Z,78752
2018-04-15T11:21:52.559Z,88192
2018-04-15T11:22:52.832Z,51776
2018-04-15T11:23:52.826Z,92160
2018-04-15T11:24:52.569Z,89376
2018-04-15T11:25:52.860Z,74208
2018-04-15T11:26:52.581Z,90944
2018-04-15T11:27:52.585Z,89664
2018-04-15T11:28:53.211Z,83872
2018-04-15T11:29:53.127Z,79040
2018-04-15T11:30:53.126Z,76800
2018-04-15T11:31:52.598Z,76128
2018-04-15T11:32:52.601Z,73856
2018-04-15T11:33:52.874Z,76032
2018-04-15T11:34:52.360Z,78432
2018-04-15T11:35:52.623Z,81856
2018-04-15T11:36:53.283Z,91232
2018-04-15T11:37:52.889Z,76672
2018-04-15T11:38:52.900Z,92096
2018-04-15T11:39:52.913Z,105184
2018-04-15T11:40:52.663Z,21664
2018-04-15T11:41:52.652Z,20736
2018-04-15T11:42:52.924Z,19968
2018-04-15T11:43:52.664Z,62016
2018-04-15T11:44:52.675Z,90848
2018-04-15T11:45:53.209Z,90848
2018-04-15T11:46:53.225Z,91808
2018-04-15T11:47:52.682Z,90400
2018-04-15T11:48:52.950Z,19264
2018-04-15T11:49:53.008Z,11792
2018-04-15T11:50:52.700Z,18112
2018-04-15T11:51:52.972Z,92256
2018-04-15T11:52:52.712Z,88544
2018-04-15T11:53:52.973Z,45216
2018-04-15T11:54:53.256Z,14236
2018-04-15T11:55:52.981Z,11632
2018-04-15T11:56:52.727Z,12376
2018-04-15T11:57:52.731Z,17824
2018-04-15T11:58:53.266Z,22784
2018-04-15T11:59:53.275Z,55936
2018-04-15T12:00:53.014Z,38432
2018-04-15T12:01:52.745Z,55008
2018-04-15T12:02:52.754Z,16280
2018-04-15T12:03:53.268Z,12416
2018-04-15T12:04:52.745Z,10552
2018-04-15T12:05:52.740Z,10112
2018-04-15T12:06:52.486Z,10208
2018-04-15T12:07:53.013Z,11748
2018-04-15T12:08:53.021Z,56928
2018-04-15T12:09:53.032Z,15588
2018-04-15T12:10:53.284Z,19680
2018-04-15T12:11:53.280Z,43968
2018-04-15T12:12:52.478Z,27424
2018-04-15T12:13:52.747Z,19104
2018-04-15T12:14:53.017Z,31840
2018-04-15T12:15:52.752Z,16512
2018-04-15T12:16:52.748Z,20928
2018-04-15T12:17:52.474Z,26304
2018-04-15T12:18:53.009Z,20480
2018-04-15T12:19:53.269Z,15316
2018-04-15T12:20:53.271Z,16928
2018-04-15T12:21:52.732Z,15732
2018-04-15T12:22:52.736Z,14652
2018-04-15T12:23:52.995Z,14128
2018-04-15T12:24:52.465Z,13940
2018-04-15T12:25:52.995Z,12612
2018-04-15T12:26:53.342Z,11692
2018-04-15T12:27:52.983Z,11544
2018-04-15T12:28:52.712Z,11860
2018-04-15T12:29:52.713Z,11628
2018-04-15T12:30:52.912Z,11292
2018-04-15T12:31:52.448Z,11184
2018-04-15T12:32:52.705Z,11120
2018-04-15T12:33:52.769Z,11144
2018-04-15T12:34:52.696Z,11356
2018-04-15T12:35:53.137Z,13148
2018-04-15T12:36:52.957Z,16672
2018-04-15T12:37:52.692Z,17728
2018-04-15T12:38:52.426Z,17472
2018-04-15T12:39:52.962Z,16548
2018-04-15T12:40:52.719Z,14736
2018-04-15T12:41:52.934Z,13180
2018-04-15T12:42:52.932Z,11840
2018-04-15T12:43:52.929Z,11704
2018-04-15T12:44:52.661Z,12632
2018-04-15T12:45:52.915Z,13632
2018-04-15T12:46:52.923Z,17024
2018-04-15T12:47:53.182Z,49600
2018-04-15T12:48:52.374Z,20544
2018-04-15T12:49:52.899Z,16476
2018-04-15T12:50:52.630Z,18752
2018-04-15T12:51:52.678Z,14148
2018-04-15T12:52:53.154Z,11764
2018-04-15T12:53:52.619Z,11340
2018-04-15T12:54:52.889Z,11432
2018-04-15T12:55:53.136Z,11688
2018-04-15T12:56:52.882Z,11944
2018-04-15T12:57:52.876Z,12080
2018-04-15T12:58:52.865Z,11504
2018-04-15T12:59:53.121Z,18176
2018-04-15T13:00:52.852Z,83072
2018-04-15T13:01:52.855Z,84544
2018-04-15T13:02:52.844Z,78848
2018-04-15T13:03:52.575Z,77824
2018-04-15T13:04:53.099Z,81760
2018-04-15T13:05:52.564Z,84416
2018-04-15T13:06:52.555Z,89376
2018-04-15T13:07:52.561Z,94080
2018-04-15T13:08:52.556Z,95552
2018-04-15T13:09:52.821Z,93440
2018-04-15T13:10:52.550Z,90528
2018-04-15T13:11:52.558Z,84896
2018-04-15T13:12:52.295Z,87296
2018-04-15T13:13:52.559Z,91136
2018-04-15T13:14:52.829Z,95296
2018-04-15T13:15:52.561Z,96000
2018-04-15T13:16:52.828Z,12536
2018-04-15T13:17:52.822Z,11484
2018-04-15T13:18:52.570Z,11936
2018-04-15T13:19:52.561Z,11568
2018-04-15T13:20:52.829Z,11484
2018-04-15T13:21:52.576Z,11872
2018-04-15T13:22:52.301Z,13188
2018-04-15T13:23:53.104Z,15744
2018-04-15T13:24:52.318Z,19552
2018-04-15T13:25:52.300Z,42016
2018-04-15T13:26:52.835Z,93984
2018-04-15T13:27:52.836Z,95104
2018-04-15T13:28:52.915Z,74848
2018-04-15T13:29:52.571Z,61760
2018-04-15T13:30:52.578Z,68640
2018-04-15T13:31:53.109Z,40608
2018-04-15T13:32:52.834Z,32096
2018-04-15T13:33:52.574Z,20096
2018-04-15T13:34:52.842Z,51456
2018-04-15T13:35:52.841Z,21856
2018-04-15T13:36:52.574Z,84768
2018-04-15T13:37:52.843Z,87904
2018-04-15T13:38:52.836Z,88864